ヘルシンキ/ヴァンター の空港の天気 - METARとTAF

ヘルシンキ・ヴァンター国際空港 ( EFHK / HEL ) - フィンランド ヴァンター
飛行場実況気象(Metar)
観測時間04/19 14:20 EEST (04/19 11:20 UTC)
風向・風速北北西 7m/s
視程10km以上
天気現象
少しの雲 雲底高度 1400m
気温15℃
湿度45%
気圧1022hPa
METAREFHK 191120Z 34013KT 9999 FEW046 15/03 Q1022 NOSIG
過去の天気等 Google飛行場航空写真 Wunderground天気予報

過去48時間のMETAR

飛行場予報(TAF)
発表時間: 4/19 14:30 EEST (4/19 11:30 UTC)
予報対象時間: 19日15時 EEST ~ 20日15時 EEST
風向・風速北北西 7m/s
視程10km以上
少しの雲 雲底高度 1,370m
20日3時 EEST ~ 20日5時 EEST に徐々に
風向・風速西南西 1m/s
20日4時 EEST から 確率 40% で
視程3,000m
天気現象もや
全天の8割程度の雲 雲底高度 120m
20日9時 EEST ~ 20日11時 EEST に徐々に
風向・風速南西 6m/s
TAF EFHK 191130Z 1912/2012 34013KT 9999 FEW045
BECMG 2000/2002 24002KT
PROB40 2001/2006 3000 BR BKN004
BECMG 2006/2008 23012KT